sensor_id;sensor_type;location;lat;lon;timestamp;temperature;humidity
72326;DHT22;60278;47.980;18.780;2022-07-24T00:00:06;22.11;68.57
72326;DHT22;60278;47.980;18.780;2022-07-24T00:03:43;22.45;67.46
72326;DHT22;60278;47.980;18.780;2022-07-24T00:07:14;22.32;68.15
72326;DHT22;60278;47.980;18.780;2022-07-24T00:10:45;22.58;67.43
72326;DHT22;60278;47.980;18.780;2022-07-24T00:14:16;22.60;67.37
72326;DHT22;60278;47.980;18.780;2022-07-24T00:17:47;22.73;67.05
72326;DHT22;60278;47.980;18.780;2022-07-24T00:21:18;22.86;66.57
72326;DHT22;60278;47.980;18.780;2022-07-24T00:24:49;23.11;65.71
72326;DHT22;60278;47.980;18.780;2022-07-24T00:28:20;23.11;65.93
72326;DHT22;60278;47.980;18.780;2022-07-24T00:31:51;23.16;65.66
72326;DHT22;60278;47.980;18.780;2022-07-24T00:35:23;23.30;65.23
72326;DHT22;60278;47.980;18.780;2022-07-24T00:38:54;23.17;65.68
72326;DHT22;60278;47.980;18.780;2022-07-24T00:42:25;23.17;65.69
72326;DHT22;60278;47.980;18.780;2022-07-24T00:45:56;23.18;65.64
72326;DHT22;60278;47.980;18.780;2022-07-24T00:49:27;22.93;66.94
72326;DHT22;60278;47.980;18.780;2022-07-24T00:52:58;23.04;66.98
72326;DHT22;60278;47.980;18.780;2022-07-24T00:56:29;23.14;66.83
72326;DHT22;60278;47.980;18.780;2022-07-24T01:00:01;23.28;66.40
72326;DHT22;60278;47.980;18.780;2022-07-24T01:03:32;23.38;66.16
72326;DHT22;60278;47.980;18.780;2022-07-24T01:07:03;23.40;66.36
72326;DHT22;60278;47.980;18.780;2022-07-24T01:10:34;23.41;66.41
72326;DHT22;60278;47.980;18.780;2022-07-24T01:14:06;23.36;66.65
72326;DHT22;60278;47.980;18.780;2022-07-24T01:17:40;23.54;66.18
72326;DHT22;60278;47.980;18.780;2022-07-24T01:21:11;23.50;66.37
72326;DHT22;60278;47.980;18.780;2022-07-24T01:24:42;23.65;66.03
72326;DHT22;60278;47.980;18.780;2022-07-24T01:28:13;23.69;65.91
72326;DHT22;60278;47.980;18.780;2022-07-24T01:31:44;23.82;65.50
72326;DHT22;60278;47.980;18.780;2022-07-24T01:35:15;23.92;65.05
72326;DHT22;60278;47.980;18.780;2022-07-24T01:38:46;24.01;64.95
72326;DHT22;60278;47.980;18.780;2022-07-24T01:42:17;24.08;64.73
72326;DHT22;60278;47.980;18.780;2022-07-24T01:45:50;24.17;64.84
72326;DHT22;60278;47.980;18.780;2022-07-24T01:49:21;24.15;65.12
72326;DHT22;60278;47.980;18.780;2022-07-24T01:52:52;23.95;65.60
72326;DHT22;60278;47.980;18.780;2022-07-24T01:56:27;24.04;65.52
72326;DHT22;60278;47.980;18.780;2022-07-24T01:59:59;24.19;64.92
72326;DHT22;60278;47.980;18.780;2022-07-24T02:03:30;24.16;64.96
72326;DHT22;60278;47.980;18.780;2022-07-24T02:07:02;24.30;64.55
72326;DHT22;60278;47.980;18.780;2022-07-24T02:10:33;24.30;64.50
72326;DHT22;60278;47.980;18.780;2022-07-24T02:14:04;24.36;64.65
72326;DHT22;60278;47.980;18.780;2022-07-24T02:17:36;24.26;64.79
72326;DHT22;60278;47.980;18.780;2022-07-24T02:21:07;24.29;64.77
72326;DHT22;60278;47.980;18.780;2022-07-24T02:24:38;24.25;65.02
72326;DHT22;60278;47.980;18.780;2022-07-24T02:28:09;24.33;64.60
72326;DHT22;60278;47.980;18.780;2022-07-24T02:31:40;24.15;65.12
72326;DHT22;60278;47.980;18.780;2022-07-24T02:35:11;24.26;64.72
72326;DHT22;60278;47.980;18.780;2022-07-24T02:38:42;24.25;64.97
72326;DHT22;60278;47.980;18.780;2022-07-24T02:42:13;24.04;65.64
72326;DHT22;60278;47.980;18.780;2022-07-24T02:45:44;23.98;66.00
72326;DHT22;60278;47.980;18.780;2022-07-24T02:49:16;23.89;66.07
72326;DHT22;60278;47.980;18.780;2022-07-24T02:52:47;23.89;66.01
72326;DHT22;60278;47.980;18.780;2022-07-24T02:56:18;23.78;66.40
72326;DHT22;60278;47.980;18.780;2022-07-24T02:59:49;23.58;67.25
72326;DHT22;60278;47.980;18.780;2022-07-24T03:03:22;23.69;67.18
72326;DHT22;60278;47.980;18.780;2022-07-24T03:06:53;23.61;67.26
72326;DHT22;60278;47.980;18.780;2022-07-24T03:10:24;23.46;67.77
72326;DHT22;60278;47.980;18.780;2022-07-24T03:13:56;23.31;68.43
72326;DHT22;60278;47.980;18.780;2022-07-24T03:17:27;23.30;68.49
72326;DHT22;60278;47.980;18.780;2022-07-24T03:20:58;23.23;68.65
72326;DHT22;60278;47.980;18.780;2022-07-24T03:24:29;23.23;68.75
72326;DHT22;60278;47.980;18.780;2022-07-24T03:28:00;23.18;68.75
72326;DHT22;60278;47.980;18.780;2022-07-24T03:31:31;23.18;68.69
72326;DHT22;60278;47.980;18.780;2022-07-24T03:35:03;23.14;68.78
72326;DHT22;60278;47.980;18.780;2022-07-24T03:38:34;23.24;68.56
72326;DHT22;60278;47.980;18.780;2022-07-24T03:42:05;23.17;68.76
72326;DHT22;60278;47.980;18.780;2022-07-24T03:45:36;23.23;68.66
72326;DHT22;60278;47.980;18.780;2022-07-24T03:49:07;23.24;68.65
72326;DHT22;60278;47.980;18.780;2022-07-24T03:52:38;23.31;68.48
72326;DHT22;60278;47.980;18.780;2022-07-24T03:56:10;23.20;68.93
72326;DHT22;60278;47.980;18.780;2022-07-24T03:59:41;23.30;68.88
72326;DHT22;60278;47.980;18.780;2022-07-24T04:03:12;23.33;68.94
72326;DHT22;60278;47.980;18.780;2022-07-24T04:06:43;23.62;67.88
72326;DHT22;60278;47.980;18.780;2022-07-24T04:10:14;23.77;68.04
72326;DHT22;60278;47.980;18.780;2022-07-24T04:13:45;23.72;67.96
72326;DHT22;60278;47.980;18.780;2022-07-24T04:17:16;23.65;68.17
72326;DHT22;60278;47.980;18.780;2022-07-24T04:20:47;23.79;67.74
72326;DHT22;60278;47.980;18.780;2022-07-24T04:24:18;23.77;67.78
72326;DHT22;60278;47.980;18.780;2022-07-24T04:27:49;23.86;67.92
72326;DHT22;60278;47.980;18.780;2022-07-24T04:31:20;24.12;67.72
72326;DHT22;60278;47.980;18.780;2022-07-24T04:34:52;24.26;67.39
72326;DHT22;60278;47.980;18.780;2022-07-24T04:38:23;24.40;67.62
72326;DHT22;60278;47.980;18.780;2022-07-24T04:41:54;24.29;67.63
72326;DHT22;60278;47.980;18.780;2022-07-24T04:45:25;24.43;67.46
72326;DHT22;60278;47.980;18.780;2022-07-24T04:48:56;24.57;67.20
72326;DHT22;60278;47.980;18.780;2022-07-24T04:52:27;24.73;66.97
72326;DHT22;60278;47.980;18.780;2022-07-24T04:55:58;24.87;66.59
72326;DHT22;60278;47.980;18.780;2022-07-24T04:59:29;25.26;65.47
72326;DHT22;60278;47.980;18.780;2022-07-24T05:03:00;25.22;65.69
72326;DHT22;60278;47.980;18.780;2022-07-24T05:06:31;24.95;66.25
72326;DHT22;60278;47.980;18.780;2022-07-24T05:10:03;25.07;65.97
72326;DHT22;60278;47.980;18.780;2022-07-24T05:13:35;25.03;66.24
72326;DHT22;60278;47.980;18.780;2022-07-24T05:17:06;25.25;65.87
72326;DHT22;60278;47.980;18.780;2022-07-24T05:20:37;25.22;66.17
72326;DHT22;60278;47.980;18.780;2022-07-24T05:24:08;25.28;65.75
72326;DHT22;60278;47.980;18.780;2022-07-24T05:27:39;25.35;65.71
72326;DHT22;60278;47.980;18.780;2022-07-24T05:31:10;25.24;66.10
72326;DHT22;60278;47.980;18.780;2022-07-24T05:34:41;25.10;66.43
72326;DHT22;60278;47.980;18.780;2022-07-24T05:38:12;24.95;66.56
72326;DHT22;60278;47.980;18.780;2022-07-24T05:41:43;24.97;66.78
72326;DHT22;60278;47.980;18.780;2022-07-24T05:45:14;24.94;66.62
72326;DHT22;60278;47.980;18.780;2022-07-24T05:48:45;24.88;67.26
72326;DHT22;60278;47.980;18.780;2022-07-24T05:52:17;24.77;67.35
72326;DHT22;60278;47.980;18.780;2022-07-24T05:55:48;24.74;67.68
72326;DHT22;60278;47.980;18.780;2022-07-24T05:59:19;24.70;67.48
72326;DHT22;60278;47.980;18.780;2022-07-24T06:02:50;24.63;67.81
72326;DHT22;60278;47.980;18.780;2022-07-24T06:06:21;24.91;66.80
72326;DHT22;60278;47.980;18.780;2022-07-24T06:09:52;25.22;65.86
72326;DHT22;60278;47.980;18.780;2022-07-24T06:13:23;25.58;65.15
72326;DHT22;60278;47.980;18.780;2022-07-24T06:16:55;25.69;64.39
72326;DHT22;60278;47.980;18.780;2022-07-24T06:20:26;25.85;63.14
72326;DHT22;60278;47.980;18.780;2022-07-24T06:23:57;26.20;62.59
72326;DHT22;60278;47.980;18.780;2022-07-24T06:27:28;26.38;61.89
72326;DHT22;60278;47.980;18.780;2022-07-24T06:30:59;26.47;60.73
72326;DHT22;60278;47.980;18.780;2022-07-24T06:34:30;26.67;60.77
72326;DHT22;60278;47.980;18.780;2022-07-24T06:38:01;26.86;60.27
72326;DHT22;60278;47.980;18.780;2022-07-24T06:41:32;27.22;58.34
72326;DHT22;60278;47.980;18.780;2022-07-24T06:45:04;27.02;57.97
72326;DHT22;60278;47.980;18.780;2022-07-24T06:48:36;27.12;57.69
72326;DHT22;60278;47.980;18.780;2022-07-24T06:52:08;27.22;56.22
72326;DHT22;60278;47.980;18.780;2022-07-24T06:55:39;27.53;55.78
72326;DHT22;60278;47.980;18.780;2022-07-24T06:59:10;27.65;54.65
72326;DHT22;60278;47.980;18.780;2022-07-24T07:02:41;27.91;54.11
72326;DHT22;60278;47.980;18.780;2022-07-24T07:06:12;27.95;53.66
72326;DHT22;60278;47.980;18.780;2022-07-24T07:09:44;28.09;53.32
72326;DHT22;60278;47.980;18.780;2022-07-24T07:13:15;28.05;53.38
72326;DHT22;60278;47.980;18.780;2022-07-24T07:16:46;28.57;52.51
72326;DHT22;60278;47.980;18.780;2022-07-24T07:20:18;28.69;52.24
72326;DHT22;60278;47.980;18.780;2022-07-24T07:23:49;29.93;49.57
72326;DHT22;60278;47.980;18.780;2022-07-24T07:27:20;30.72;47.38
72326;DHT22;60278;47.980;18.780;2022-07-24T07:30:51;32.13;43.91
72326;DHT22;60278;47.980;18.780;2022-07-24T07:34:22;32.27;44.20
72326;DHT22;60278;47.980;18.780;2022-07-24T07:37:53;32.49;43.70
72326;DHT22;60278;47.980;18.780;2022-07-24T07:41:24;31.50;45.34
72326;DHT22;60278;47.980;18.780;2022-07-24T07:44:55;32.90;42.13
72326;DHT22;60278;47.980;18.780;2022-07-24T07:48:26;32.03;43.71
72326;DHT22;60278;47.980;18.780;2022-07-24T07:51:59;32.16;42.91
72326;DHT22;60278;47.980;18.780;2022-07-24T07:55:30;32.28;42.12
72326;DHT22;60278;47.980;18.780;2022-07-24T07:59:01;32.06;42.81
72326;DHT22;60278;47.980;18.780;2022-07-24T08:02:32;32.55;42.34
72326;DHT22;60278;47.980;18.780;2022-07-24T08:06:03;32.72;41.98
72326;DHT22;60278;47.980;18.780;2022-07-24T08:09:35;33.19;40.44
72326;DHT22;60278;47.980;18.780;2022-07-24T08:13:08;33.18;40.73
72326;DHT22;60278;47.980;18.780;2022-07-24T08:16:39;33.13;39.64
72326;DHT22;60278;47.980;18.780;2022-07-24T08:20:10;33.25;39.09
72326;DHT22;60278;47.980;18.780;2022-07-24T08:23:42;33.91;37.98
72326;DHT22;60278;47.980;18.780;2022-07-24T08:27:13;33.27;38.95
72326;DHT22;60278;47.980;18.780;2022-07-24T08:30:44;33.39;38.49
72326;DHT22;60278;47.980;18.780;2022-07-24T08:34:15;33.77;38.00
72326;DHT22;60278;47.980;18.780;2022-07-24T08:37:46;33.43;38.35
72326;DHT22;60278;47.980;18.780;2022-07-24T08:41:17;33.45;37.92
72326;DHT22;60278;47.980;18.780;2022-07-24T08:44:49;33.80;36.80
72326;DHT22;60278;47.980;18.780;2022-07-24T08:48:20;33.40;36.49
72326;DHT22;60278;47.980;18.780;2022-07-24T08:51:52;33.57;36.03
72326;DHT22;60278;47.980;18.780;2022-07-24T08:55:23;34.80;34.86
72326;DHT22;60278;47.980;18.780;2022-07-24T08:58:54;33.87;36.40
72326;DHT22;60278;47.980;18.780;2022-07-24T09:02:26;35.08;34.36
72326;DHT22;60278;47.980;18.780;2022-07-24T09:05:58;34.65;35.19
72326;DHT22;60278;47.980;18.780;2022-07-24T09:09:30;33.70;35.58
72326;DHT22;60278;47.980;18.780;2022-07-24T09:13:15;33.02;35.30
72326;DHT22;60278;47.980;18.780;2022-07-24T09:16:47;33.16;35.70
72326;DHT22;60278;47.980;18.780;2022-07-24T09:20:18;32.80;37.60
72326;DHT22;60278;47.980;18.780;2022-07-24T09:23:49;34.80;34.77
72326;DHT22;60278;47.980;18.780;2022-07-24T09:27:20;34.51;36.68
72326;DHT22;60278;47.980;18.780;2022-07-24T09:30:52;33.30;37.77
72326;DHT22;60278;47.980;18.780;2022-07-24T09:34:24;33.66;36.85
72326;DHT22;60278;47.980;18.780;2022-07-24T09:37:57;32.38;38.37
72326;DHT22;60278;47.980;18.780;2022-07-24T09:41:29;32.94;35.82
72326;DHT22;60278;47.980;18.780;2022-07-24T09:45:01;33.42;35.19
72326;DHT22;60278;47.980;18.780;2022-07-24T09:48:52;33.51;34.79
72326;DHT22;60278;47.980;18.780;2022-07-24T09:52:32;33.94;34.45
72326;DHT22;60278;47.980;18.780;2022-07-24T09:59:40;33.47;34.03
72326;DHT22;60278;47.980;18.780;2022-07-24T10:03:14;34.00;31.38
72326;DHT22;60278;47.980;18.780;2022-07-24T10:06:46;33.93;31.33
72326;DHT22;60278;47.980;18.780;2022-07-24T10:10:18;34.38;29.71
72326;DHT22;60278;47.980;18.780;2022-07-24T10:13:49;34.31;30.61
72326;DHT22;60278;47.980;18.780;2022-07-24T10:17:21;33.68;31.84
72326;DHT22;60278;47.980;18.780;2022-07-24T10:21:05;34.32;31.16
72326;DHT22;60278;47.980;18.780;2022-07-24T10:24:56;34.12;30.98
72326;DHT22;60278;47.980;18.780;2022-07-24T10:28:40;34.21;30.57
72326;DHT22;60278;47.980;18.780;2022-07-24T10:32:12;34.15;29.42
72326;DHT22;60278;47.980;18.780;2022-07-24T10:35:43;33.74;29.88
72326;DHT22;60278;47.980;18.780;2022-07-24T10:39:25;35.02;28.36
72326;DHT22;60278;47.980;18.780;2022-07-24T10:47:24;34.65;27.08
72326;DHT22;60278;47.980;18.780;2022-07-24T10:51:13;34.95;25.94
72326;DHT22;60278;47.980;18.780;2022-07-24T10:54:47;34.41;26.61
72326;DHT22;60278;47.980;18.780;2022-07-24T10:58:18;34.99;27.04
72326;DHT22;60278;47.980;18.780;2022-07-24T11:01:51;34.45;27.87
72326;DHT22;60278;47.980;18.780;2022-07-24T11:05:38;34.49;27.50
72326;DHT22;60278;47.980;18.780;2022-07-24T11:09:10;35.14;27.35
72326;DHT22;60278;47.980;18.780;2022-07-24T11:12:42;35.57;26.65
72326;DHT22;60278;47.980;18.780;2022-07-24T11:16:27;35.64;26.42
72326;DHT22;60278;47.980;18.780;2022-07-24T11:20:00;34.92;27.22
72326;DHT22;60278;47.980;18.780;2022-07-24T11:23:32;34.11;27.93
72326;DHT22;60278;47.980;18.780;2022-07-24T11:27:17;34.78;28.75
72326;DHT22;60278;47.980;18.780;2022-07-24T11:30:49;34.72;27.85
72326;DHT22;60278;47.980;18.780;2022-07-24T11:34:22;34.48;27.84
72326;DHT22;60278;47.980;18.780;2022-07-24T11:37:53;34.65;27.46
72326;DHT22;60278;47.980;18.780;2022-07-24T11:41:25;34.22;27.99
72326;DHT22;60278;47.980;18.780;2022-07-24T11:44:56;33.70;28.09
72326;DHT22;60278;47.980;18.780;2022-07-24T11:48:27;34.29;27.60
72326;DHT22;60278;47.980;18.780;2022-07-24T11:51:58;34.44;28.03
72326;DHT22;60278;47.980;18.780;2022-07-24T11:55:29;34.86;27.89
72326;DHT22;60278;47.980;18.780;2022-07-24T11:59:00;34.21;28.00
72326;DHT22;60278;47.980;18.780;2022-07-24T12:02:31;34.46;28.19
72326;DHT22;60278;47.980;18.780;2022-07-24T12:06:12;33.94;27.90
72326;DHT22;60278;47.980;18.780;2022-07-24T12:10:04;34.01;27.22
72326;DHT22;60278;47.980;18.780;2022-07-24T12:13:40;33.81;26.71
72326;DHT22;60278;47.980;18.780;2022-07-24T12:17:12;34.79;26.65
72326;DHT22;60278;47.980;18.780;2022-07-24T12:20:43;34.72;26.48
72326;DHT22;60278;47.980;18.780;2022-07-24T12:24:15;34.67;26.46
72326;DHT22;60278;47.980;18.780;2022-07-24T12:27:46;33.71;26.75
72326;DHT22;60278;47.980;18.780;2022-07-24T12:31:23;34.12;26.42
72326;DHT22;60278;47.980;18.780;2022-07-24T12:34:54;34.18;26.53
72326;DHT22;60278;47.980;18.780;2022-07-24T12:38:31;34.52;26.55
72326;DHT22;60278;47.980;18.780;2022-07-24T12:42:03;34.34;26.56
72326;DHT22;60278;47.980;18.780;2022-07-24T12:45:34;34.42;26.15
72326;DHT22;60278;47.980;18.780;2022-07-24T12:49:15;33.78;26.32
72326;DHT22;60278;47.980;18.780;2022-07-24T12:52:50;34.22;25.76
72326;DHT22;60278;47.980;18.780;2022-07-24T12:56:22;34.12;26.02
72326;DHT22;60278;47.980;18.780;2022-07-24T13:00:00;34.08;26.09
72326;DHT22;60278;47.980;18.780;2022-07-24T13:03:32;33.93;26.15
72326;DHT22;60278;47.980;18.780;2022-07-24T13:07:07;34.32;25.49
72326;DHT22;60278;47.980;18.780;2022-07-24T13:10:38;33.77;25.44
72326;DHT22;60278;47.980;18.780;2022-07-24T13:14:10;34.25;24.88
72326;DHT22;60278;47.980;18.780;2022-07-24T13:17:41;33.66;25.29
72326;DHT22;60278;47.980;18.780;2022-07-24T13:21:12;33.46;25.36
72326;DHT22;60278;47.980;18.780;2022-07-24T13:24:44;33.08;25.81
72326;DHT22;60278;47.980;18.780;2022-07-24T13:28:15;33.09;26.01
72326;DHT22;60278;47.980;18.780;2022-07-24T13:31:46;33.13;25.80
72326;DHT22;60278;47.980;18.780;2022-07-24T13:35:17;33.34;25.79
72326;DHT22;60278;47.980;18.780;2022-07-24T13:38:48;33.00;26.17
72326;DHT22;60278;47.980;18.780;2022-07-24T13:42:19;33.34;26.44
72326;DHT22;60278;47.980;18.780;2022-07-24T13:45:51;33.39;26.54
72326;DHT22;60278;47.980;18.780;2022-07-24T13:49:23;33.25;27.05
72326;DHT22;60278;47.980;18.780;2022-07-24T13:52:54;32.72;26.67
72326;DHT22;60278;47.980;18.780;2022-07-24T13:56:25;33.22;26.53
72326;DHT22;60278;47.980;18.780;2022-07-24T13:59:57;32.32;26.76
72326;DHT22;60278;47.980;18.780;2022-07-24T14:03:28;33.05;26.60
72326;DHT22;60278;47.980;18.780;2022-07-24T14:07:00;33.03;26.00
72326;DHT22;60278;47.980;18.780;2022-07-24T14:10:31;32.65;26.70
72326;DHT22;60278;47.980;18.780;2022-07-24T14:14:02;32.57;27.11
72326;DHT22;60278;47.980;18.780;2022-07-24T14:17:34;32.69;26.83
72326;DHT22;60278;47.980;18.780;2022-07-24T14:21:05;32.47;26.53
72326;DHT22;60278;47.980;18.780;2022-07-24T14:24:36;32.34;26.66
72326;DHT22;60278;47.980;18.780;2022-07-24T14:28:07;32.58;26.71
72326;DHT22;60278;47.980;18.780;2022-07-24T14:31:38;32.37;26.89
72326;DHT22;60278;47.980;18.780;2022-07-24T14:35:09;32.28;26.73
72326;DHT22;60278;47.980;18.780;2022-07-24T14:38:41;32.14;26.92
72326;DHT22;60278;47.980;18.780;2022-07-24T14:42:12;32.55;27.16
72326;DHT22;60278;47.980;18.780;2022-07-24T14:45:43;32.31;27.36
72326;DHT22;60278;47.980;18.780;2022-07-24T14:49:14;32.41;26.91
72326;DHT22;60278;47.980;18.780;2022-07-24T14:52:45;32.17;27.02
72326;DHT22;60278;47.980;18.780;2022-07-24T14:56:16;32.07;27.45
72326;DHT22;60278;47.980;18.780;2022-07-24T14:59:47;32.04;27.20
72326;DHT22;60278;47.980;18.780;2022-07-24T15:03:19;31.97;27.45
72326;DHT22;60278;47.980;18.780;2022-07-24T15:06:50;32.03;27.42
72326;DHT22;60278;47.980;18.780;2022-07-24T15:10:21;31.72;27.71
72326;DHT22;60278;47.980;18.780;2022-07-24T15:13:52;31.87;27.62
72326;DHT22;60278;47.980;18.780;2022-07-24T15:17:23;32.01;27.91
72326;DHT22;60278;47.980;18.780;2022-07-24T15:20:54;31.62;27.07
72326;DHT22;60278;47.980;18.780;2022-07-24T15:24:25;31.84;27.27
72326;DHT22;60278;47.980;18.780;2022-07-24T15:27:56;31.70;27.79
72326;DHT22;60278;47.980;18.780;2022-07-24T15:31:28;31.67;28.19
72326;DHT22;60278;47.980;18.780;2022-07-24T15:34:59;31.52;28.18
72326;DHT22;60278;47.980;18.780;2022-07-24T15:38:30;31.53;28.26
72326;DHT22;60278;47.980;18.780;2022-07-24T15:42:01;31.69;28.14
72326;DHT22;60278;47.980;18.780;2022-07-24T15:45:32;31.54;27.98
72326;DHT22;60278;47.980;18.780;2022-07-24T15:49:04;31.33;28.11
72326;DHT22;60278;47.980;18.780;2022-07-24T15:52:36;31.19;28.56
72326;DHT22;60278;47.980;18.780;2022-07-24T15:56:07;31.15;28.86
72326;DHT22;60278;47.980;18.780;2022-07-24T15:59:38;31.12;28.75
72326;DHT22;60278;47.980;18.780;2022-07-24T16:03:09;31.25;28.49
72326;DHT22;60278;47.980;18.780;2022-07-24T16:06:40;31.36;28.52
72326;DHT22;60278;47.980;18.780;2022-07-24T16:10:12;31.28;28.57
72326;DHT22;60278;47.980;18.780;2022-07-24T16:13:43;30.88;28.80
72326;DHT22;60278;47.980;18.780;2022-07-24T16:17:14;30.96;28.96
72326;DHT22;60278;47.980;18.780;2022-07-24T16:20:45;30.88;29.34
72326;DHT22;60278;47.980;18.780;2022-07-24T16:24:16;30.91;29.15
72326;DHT22;60278;47.980;18.780;2022-07-24T16:27:47;30.78;29.40
72326;DHT22;60278;47.980;18.780;2022-07-24T16:31:18;30.64;29.87
72326;DHT22;60278;47.980;18.780;2022-07-24T16:34:49;30.60;29.59
72326;DHT22;60278;47.980;18.780;2022-07-24T16:38:20;30.43;30.33
72326;DHT22;60278;47.980;18.780;2022-07-24T16:41:51;30.51;30.64
72326;DHT22;60278;47.980;18.780;2022-07-24T16:45:22;30.33;30.52
72326;DHT22;60278;47.980;18.780;2022-07-24T16:48:54;30.27;30.10
72326;DHT22;60278;47.980;18.780;2022-07-24T16:52:25;30.16;29.98
72326;DHT22;60278;47.980;18.780;2022-07-24T16:55:56;30.03;30.06
72326;DHT22;60278;47.980;18.780;2022-07-24T16:59:27;30.02;30.46
72326;DHT22;60278;47.980;18.780;2022-07-24T17:02:58;30.01;30.46
72326;DHT22;60278;47.980;18.780;2022-07-24T17:06:29;29.90;30.19
72326;DHT22;60278;47.980;18.780;2022-07-24T17:10:00;29.83;30.79
72326;DHT22;60278;47.980;18.780;2022-07-24T17:13:31;29.83;31.05
72326;DHT22;60278;47.980;18.780;2022-07-24T17:17:03;29.71;31.41
72326;DHT22;60278;47.980;18.780;2022-07-24T17:20:37;29.65;31.47
72326;DHT22;60278;47.980;18.780;2022-07-24T17:24:08;29.57;31.59
72326;DHT22;60278;47.980;18.780;2022-07-24T17:27:39;29.39;32.10
72326;DHT22;60278;47.980;18.780;2022-07-24T17:31:10;29.35;32.05
72326;DHT22;60278;47.980;18.780;2022-07-24T17:34:42;29.25;32.21
72326;DHT22;60278;47.980;18.780;2022-07-24T17:38:13;29.20;32.53
72326;DHT22;60278;47.980;18.780;2022-07-24T17:41:44;29.11;32.53
72326;DHT22;60278;47.980;18.780;2022-07-24T17:45:15;28.97;32.95
72326;DHT22;60278;47.980;18.780;2022-07-24T17:48:46;28.90;32.90
72326;DHT22;60278;47.980;18.780;2022-07-24T17:52:17;28.80;33.29
72326;DHT22;60278;47.980;18.780;2022-07-24T17:55:48;28.67;33.67
72326;DHT22;60278;47.980;18.780;2022-07-24T17:59:19;28.53;34.00
72326;DHT22;60278;47.980;18.780;2022-07-24T18:02:50;28.41;33.99
72326;DHT22;60278;47.980;18.780;2022-07-24T18:06:22;28.33;34.20
72326;DHT22;60278;47.980;18.780;2022-07-24T18:09:53;28.18;34.45
72326;DHT22;60278;47.980;18.780;2022-07-24T18:13:25;28.06;34.67
72326;DHT22;60278;47.980;18.780;2022-07-24T18:16:56;27.90;35.13
72326;DHT22;60278;47.980;18.780;2022-07-24T18:20:27;27.74;35.41
72326;DHT22;60278;47.980;18.780;2022-07-24T18:23:58;27.64;35.44
72326;DHT22;60278;47.980;18.780;2022-07-24T18:27:29;27.64;35.57
72326;DHT22;60278;47.980;18.780;2022-07-24T18:31:00;27.46;35.70
72326;DHT22;60278;47.980;18.780;2022-07-24T18:34:31;27.33;36.25
72326;DHT22;60278;47.980;18.780;2022-07-24T18:38:02;27.29;36.03
72326;DHT22;60278;47.980;18.780;2022-07-24T18:41:34;27.17;36.26
72326;DHT22;60278;47.980;18.780;2022-07-24T18:45:05;27.09;36.63
72326;DHT22;60278;47.980;18.780;2022-07-24T18:48:36;26.96;36.74
72326;DHT22;60278;47.980;18.780;2022-07-24T18:52:10;26.82;37.06
72326;DHT22;60278;47.980;18.780;2022-07-24T18:55:41;26.74;37.39
72326;DHT22;60278;47.980;18.780;2022-07-24T18:59:12;26.69;37.38
72326;DHT22;60278;47.980;18.780;2022-07-24T19:02:43;26.59;37.51
72326;DHT22;60278;47.980;18.780;2022-07-24T19:06:14;26.45;37.64
72326;DHT22;60278;47.980;18.780;2022-07-24T19:09:45;26.38;38.02
72326;DHT22;60278;47.980;18.780;2022-07-24T19:13:16;26.40;37.19
72326;DHT22;60278;47.980;18.780;2022-07-24T19:16:47;26.48;37.13
72326;DHT22;60278;47.980;18.780;2022-07-24T19:20:18;26.45;36.96
72326;DHT22;60278;47.980;18.780;2022-07-24T19:23:49;26.44;36.89
72326;DHT22;60278;47.980;18.780;2022-07-24T19:27:21;26.34;37.11
72326;DHT22;60278;47.980;18.780;2022-07-24T19:30:52;26.24;37.10
72326;DHT22;60278;47.980;18.780;2022-07-24T19:34:23;26.00;37.71
72326;DHT22;60278;47.980;18.780;2022-07-24T19:37:56;25.70;38.86
72326;DHT22;60278;47.980;18.780;2022-07-24T19:41:27;25.58;39.40
72326;DHT22;60278;47.980;18.780;2022-07-24T19:44:58;25.43;39.93
72326;DHT22;60278;47.980;18.780;2022-07-24T19:48:29;25.38;39.74
72326;DHT22;60278;47.980;18.780;2022-07-24T19:52:00;25.29;39.92
72326;DHT22;60278;47.980;18.780;2022-07-24T19:55:32;25.19;40.95
72326;DHT22;60278;47.980;18.780;2022-07-24T19:59:03;24.98;41.02
72326;DHT22;60278;47.980;18.780;2022-07-24T20:02:34;24.77;41.21
72326;DHT22;60278;47.980;18.780;2022-07-24T20:06:06;24.66;41.40
72326;DHT22;60278;47.980;18.780;2022-07-24T20:09:37;24.57;41.64
72326;DHT22;60278;47.980;18.780;2022-07-24T20:13:09;24.41;41.60
72326;DHT22;60278;47.980;18.780;2022-07-24T20:16:40;24.29;41.49
72326;DHT22;60278;47.980;18.780;2022-07-24T20:20:11;24.19;41.29
72326;DHT22;60278;47.980;18.780;2022-07-24T20:23:42;24.23;40.99
72326;DHT22;60278;47.980;18.780;2022-07-24T20:27:13;24.12;41.01
72326;DHT22;60278;47.980;18.780;2022-07-24T20:30:44;24.12;40.73
72326;DHT22;60278;47.980;18.780;2022-07-24T20:34:16;24.05;41.03
72326;DHT22;60278;47.980;18.780;2022-07-24T20:37:47;23.86;41.42
72326;DHT22;60278;47.980;18.780;2022-07-24T20:41:18;22.82;44.37
72326;DHT22;60278;47.980;18.780;2022-07-24T20:44:49;22.39;45.56
72326;DHT22;60278;47.980;18.780;2022-07-24T20:48:20;22.22;46.09
72326;DHT22;60278;47.980;18.780;2022-07-24T20:51:51;22.27;46.31
72326;DHT22;60278;47.980;18.780;2022-07-24T20:55:22;22.32;46.39
72326;DHT22;60278;47.980;18.780;2022-07-24T20:58:53;22.37;46.36
72326;DHT22;60278;47.980;18.780;2022-07-24T21:02:24;22.07;47.40
72326;DHT22;60278;47.980;18.780;2022-07-24T21:05:56;22.38;46.84
72326;DHT22;60278;47.980;18.780;2022-07-24T21:09:27;22.37;46.80
72326;DHT22;60278;47.980;18.780;2022-07-24T21:12:58;22.42;46.32
72326;DHT22;60278;47.980;18.780;2022-07-24T21:16:29;22.56;47.14
72326;DHT22;60278;47.980;18.780;2022-07-24T21:20:01;22.53;47.41
72326;DHT22;60278;47.980;18.780;2022-07-24T21:23:32;21.93;48.14
72326;DHT22;60278;47.980;18.780;2022-07-24T21:27:03;21.76;48.74
72326;DHT22;60278;47.980;18.780;2022-07-24T21:30:35;21.96;47.96
72326;DHT22;60278;47.980;18.780;2022-07-24T21:34:06;22.15;47.00
72326;DHT22;60278;47.980;18.780;2022-07-24T21:37:37;21.91;47.76
72326;DHT22;60278;47.980;18.780;2022-07-24T21:41:08;22.04;47.29
72326;DHT22;60278;47.980;18.780;2022-07-24T21:44:40;22.09;47.16
72326;DHT22;60278;47.980;18.780;2022-07-24T21:48:11;21.90;47.95
72326;DHT22;60278;47.980;18.780;2022-07-24T21:51:42;21.67;48.30
72326;DHT22;60278;47.980;18.780;2022-07-24T21:55:13;20.63;52.16
72326;DHT22;60278;47.980;18.780;2022-07-24T21:58:44;20.43;52.78
72326;DHT22;60278;47.980;18.780;2022-07-24T22:02:16;20.30;53.10